Aledo, Texas
Current Conditions -  °F | °C
As of 3:52 AM on Thursday 23 Oct 2014 (Local Time) from KNFW Reporting Station
Overcast Overcast  
Wind Chill: 74°   Ceiling: 8500
Heat Index: 74°   Visibility: 10mi
Dew Point: 51°   Wind: 9mph
Humidity: 45%   Direction: 140°SE
Pressure: 30.15"   Gusts: NA
Location:  32.7°N, 97.6°W
Report Text: KNFW 230852Z AUTO 14008KT 10SM OVC085 23/11 A3015 RMK AO2 SLP192 T02330106 53002 CHINO N VISNO N $
Loading
Personal Weather Stations






























Interactive Weather Map
Tropical Storm Tracking
New forecast layout! Learn more

10-Day Weather Forecast

Advertisements
Track Severe Weather on mobile